ISABELLA DAM (ISB)

Elevation: 2635' · KERN R basin · Operator: US Army Corps of Engineers

Provisional data, subject to change.
Query executed Wednesday at 16:53:56   clock

Select a sensor type for a plot of data.
Note: Reservoir Flows are daily averages.

Earlier

Date RES ELE    STORAGE    RES CHG    TOC STO    ABV TOC    OUTFLOW    INFLOW    FNF    PPT INC    PPTINC4    TEMP MN    TEMP MX    WINDLEN    EVP PAN   
 FEET   AF   AF   AF   AF   CFS   CFS   CFS   INCHES   INCHES   DEG F   DEG F   MILES   INCHES  
08/29/2016 2548.23 106871 -572 361250 -254379 362 136 136 0.02 0.00 19 37 236 0.41
08/30/2016 2548.09 106257 -614 361250 -254993 370 122 122 0.00 0.00 19 38 232 0.42
08/31/2016 2547.96 105689 -568 361250 -255561 349 130 130 0.00 0.00 19 36 248 0.42
09/01/2016 2547.85 105210 -479 361250 -256040 311 131 131 0.00 0.00 17 35 219 0.39
09/02/2016 2547.73 104689 -521 361250 -256561 308 107 107 0.00 0.00 17 33 226 0.39
09/03/2016 2547.60 104127 -562 361250 -257123 334 111 111 0.00 0.00 18 29 304 0.38
09/04/2016 2547.45 103481 -646 361250 -257769 317 55 55 0.00 0.00 16 25 446 0.40
09/05/2016 2547.34 103009 -472 361250 -258241 283 97 97 0.00 0.00 13 26 279 0.33
09/06/2016 2547.26 102667 -342 361250 -258583 250 132 132 0.00 0.00 12 32 223 0.35
09/07/2016 2547.18 102325 -342 361250 -258925 215 102 102 0.00 0.00 15 36 205 0.38
09/08/2016 2547.11 102027 -298 361250 -259223 218 128 128 0.00 0.00 17 34 231 0.38
09/09/2016 2547.03 101687 -340 361250 -259563 226 113 113 0.00 0.00 17 36 213 0.38
09/10/2016 2546.95 101348 -339 361250 -259902 225 109 109 0.00 0.00 17 35 204 0.35
09/11/2016 2546.86 100967 -381 361250 -260283 219 80 80 0.00 0.00 17 32 225 0.34
09/12/2016 2546.79 100672 -295 361250 -260578 213 125 125 0.00 0.00 18 30 327 0.39
09/13/2016 2546.70 100293 -379 361250 -260957 212 66 66 0.00 0.00 12 20 395 0.29
09/14/2016 2546.62 99957 -336 361250 -261293 212 85 85 0.00 0.00 8 26 201 0.27
09/15/2016 2546.56 99705 -252 361250 -261545 194 113 113 0.00 0.00 11 30 193 0.30
09/16/2016 2546.51 99496 -209 360396 -260900 166 109 109 0.00 0.00 12 33 172 0.32
09/17/2016 2546.47 99329 -167 356068 -256739 166 135 135 0.00 0.00 14 35 188 0.34
09/18/2016 2546.42 99120 -209 351741 -252621 172 117 117 0.00 0.00 14 36 149 0.33
09/19/2016 2546.36 98870 -250 347414 -248544 181 113 113 0.00 0.00 16 36 225 0.38
09/20/2016 2546.31 98662 -208 343087 -244425 185 130 130 0.00 0.00 20 32 226 0.32
09/21/2016 2546.23 98330 -332 338760 -240430 192 76 76 0.00 0.00 19 30 247 0.34
09/22/2016 2546.14 97957 -373 334433 -236476 196 53 53 0.00 0.00 13 21 349 0.30
09/23/2016 2546.06 97627 -330 330105 -232478 199 73 73 0.00 0.00 10 23 293 0.27
09/24/2016 2546.01 97421 -206 325778 -228357 195 136 136 0.07 0.00 9 30 193 0.29
09/25/2016 2545.96 97215 -206 321451 -224236 188 136 136 0.07 0.00 14 35 196 0.34
09/26/2016 2545.91 97009 -206 317124 -220115 174 116 116 0.00 0.00 14 35 148 0.30
09/27/2016 2545.86 96804 -205 312797 -215993 177 116 -- 0.00 0.00 14 35 141 0.29
09/28/2016 -- -- -- -- -- -- -- -- -- 0.00 -- -- -- --

Later | Latest

Warning! This data is preliminary and subject to revision.

Show ISB Map | Plot ISB Data | 1 Month ISB Data | Real-Time ISB Data | ISB Info